Becker, Minnesota
Current Conditions -  °F | °C
As of 10:14 AM on Saturday 25 Oct 2014 (Local Time) from KMGG Reporting Station
Clear Clear  
Wind Chill: 53°   Ceiling: Unl
Heat Index: 53°   Visibility: 10mi
Dew Point: 37°   Wind: 8mph
Humidity: 55%   Direction: 300°WNW
Pressure: 30.07"   Gusts: NA
Location:  45.39°N, 93.88°W
Report Text: KMGG 251514Z AUTO 30007KT 10SM CLR 12/03 A3007 RMK AO2 T01170030
Loading
Personal Weather Stations






























Interactive Weather Map
Tropical Storm Tracking
New forecast layout! Learn more

10-Day Weather Forecast

Advertisements
Track Severe Weather on mobile